Time;durP1;ratioP1;P1;durP2;ratioP2;P2;SDS_P1;SDS_P2;PMS_P1;PMS_P2;Temp;Humidity;BMP_temperature;BMP_pressure;BME280_temperature;BME280_humidity;BME280_pressure;Samples;Min_cycle;Max_cycle;Signal;HPM_P1;HPM_P2
2024/01/27 00:01:47;;;;;;;;;;;;;;;-1.54;100.00;97551.79;110414;1238;68586;-60
2024/01/27 00:04:17;;;;;;;;;;;;;;;-1.59;100.00;97549.69;110380;1240;68309;-60
2024/01/27 00:06:48;;;;;;;;;;;;;;;-1.65;100.00;97547.59;110381;1242;59749;-60
2024/01/27 00:09:18;;;;;;;;;;;;;;;-1.69;100.00;97549.89;110394;1246;59691;-60
2024/01/27 00:11:48;;;;;;;;;;;;;;;-1.68;100.00;97557.55;110395;1242;70635;-60
2024/01/27 00:14:18;;;;;;;;;;;;;;;-1.67;100.00;97557.89;110445;1242;68705;-60
2024/01/27 00:16:48;;;;;;;;;;;;;;;-1.64;100.00;97556.45;110536;1241;67829;-60
2024/01/27 00:19:18;;;;;;;;;;;;;;;-1.60;100.00;97556.91;110378;1238;59793;-60
2024/01/27 00:21:49;;;;;;;;;;;;;;;-1.57;100.00;97566.90;110302;1241;59612;-60
2024/01/27 00:24:20;;;;;;;;;;;;;;;-1.52;100.00;97570.73;110257;1241;70859;-60
2024/01/27 00:26:50;;;;;;;;;;;;;;;-1.49;100.00;97567.58;110331;1241;69608;-60
2024/01/27 00:29:21;;;;;;;;;;;;;;;-1.44;100.00;97561.48;110386;1241;68262;-60
2024/01/27 00:31:54;;;;;;;;;;;;;;;-1.39;100.00;97560.85;110448;1242;59733;-60
2024/01/27 00:34:25;;;;;;;;;;;;;;;-1.35;100.00;97566.40;110323;1245;59737;-60
2024/01/27 00:36:55;;;;;;;;;;;;;;;-1.34;100.00;97559.89;110373;1239;71874;-60
2024/01/27 00:39:25;;;;;;;;;;;;;;;-1.33;100.00;97562.62;110365;1242;69124;-60
2024/01/27 00:41:58;;;;;;;;;;;;;;;-1.33;100.00;97566.02;110473;1238;68516;-60
2024/01/27 00:44:29;;;;;;;;;;;;;;;-1.32;100.00;97561.04;110469;1238;59732;-60
2024/01/27 00:47:01;;;;;;;;;;;;;;;-1.28;100.00;97553.09;110487;1241;59667;-60
2024/01/27 00:49:33;;;;;;;;;;;;;;;-1.26;100.00;97545.16;110529;1238;71435;-60
2024/01/27 00:52:03;;;;;;;;;;;;;;;-1.26;100.00;97533.17;110434;1242;69263;-60
2024/01/27 00:54:32;;;;;;;;;;;;;;;-1.27;100.00;97531.00;110426;1241;69186;-60
2024/01/27 00:57:03;;;;;;;;;;;;;;;-1.26;100.00;97527.73;110400;1241;59692;-60
2024/01/27 00:59:33;;;;;;;;;;;;;;;-1.25;100.00;97523.59;110479;1241;59689;-60
2024/01/27 01:02:04;;;;;;;;;;;;;;;-1.24;100.00;97510.92;110551;1240;70518;-60
2024/01/27 01:04:35;;;;;;;;;;;;;;;-1.22;100.00;97507.29;110399;1240;68576;-60
2024/01/27 01:07:06;;;;;;;;;;;;;;;-1.20;100.00;97509.12;110487;1241;69236;-60
2024/01/27 01:09:38;;;;;;;;;;;;;;;-1.19;100.00;97501.42;110400;1239;59731;-60
2024/01/27 01:12:11;;;;;;;;;;;;;;;-1.19;100.00;97504.15;110399;1239;59731;-60
2024/01/27 01:14:45;;;;;;;;;;;;;;;-1.20;100.00;97491.50;110457;1240;70702;-59
2024/01/27 01:17:17;;;;;;;;;;;;;;;-1.19;100.00;97482.08;110403;1240;69202;-60
2024/01/27 01:19:49;;;;;;;;;;;;;;;-1.20;100.00;97470.65;110504;1238;69193;-60
2024/01/27 01:22:22;;;;;;;;;;;;;;;-1.22;100.00;97463.17;110451;1241;59680;-59
2024/01/27 01:24:56;;;;;;;;;;;;;;;-1.23;100.00;97455.51;110472;1241;59700;-60
2024/01/27 01:27:29;;;;;;;;;;;;;;;-1.23;100.00;97439.95;110580;1238;71398;-60
2024/01/27 01:30:02;;;;;;;;;;;;;;;-1.22;100.00;97429.13;110381;1241;68583;-60
2024/01/27 01:32:35;;;;;;;;;;;;;;;-1.22;100.00;97422.46;110393;1238;68400;-60
2024/01/27 01:35:07;;;;;;;;;;;;;;;-1.21;100.00;97419.86;110483;1241;59616;-61
2024/01/27 01:37:40;;;;;;;;;;;;;;;-1.19;100.00;97422.55;110339;1238;59743;-62
2024/01/27 01:40:12;;;;;;;;;;;;;;;-1.17;100.00;97419.25;110502;1240;71323;-61
2024/01/27 01:42:52;;;;;;;;;;;;;;;-1.14;100.00;97416.77;110503;1240;68475;-61
2024/01/27 01:45:31;;;;;;;;;;;;;;;-1.10;100.00;97409.50;110493;1241;68356;-61
2024/01/27 01:48:04;;;;;;;;;;;;;;;-1.07;100.00;97406.84;110456;1241;59697;-61
2024/01/27 01:50:37;;;;;;;;;;;;;;;-1.04;100.00;97408.80;110487;1242;59687;-61
2024/01/27 01:53:14;;;;;;;;;;;;;;;-0.99;100.00;97409.56;110456;1241;71456;-61
2024/01/27 01:55:49;;;;;;;;;;;;;;;-0.96;100.00;97408.10;110475;1241;69252;-61
2024/01/27 01:58:20;;;;;;;;;;;;;;;-0.92;100.00;97402.85;110452;1238;68546;-59
2024/01/27 02:00:50;;;;;;;;;;;;;;;-0.90;100.00;97400.73;110408;1242;59735;-61
2024/01/27 02:03:22;;;;;;;;;;;;;;;-0.87;100.00;97398.95;110507;1238;59731;-61
2024/01/27 02:05:58;;;;;;;;;;;;;;;-0.85;100.00;97394.42;110414;1239;70432;-62
2024/01/27 02:08:29;;;;;;;;;;;;;;;-0.83;100.00;97396.27;110424;1242;68437;-61
2024/01/27 02:11:10;;;;;;;;;;;;;;;-0.80;100.00;97388.32;110395;1238;68521;-61
2024/01/27 02:13:51;;;;;;;;;;;;;;;-0.76;100.00;97380.49;110377;1240;59732;-61
2024/01/27 02:16:22;;;;;;;;;;;;;;;-0.73;100.00;97380.61;110406;1241;59666;-61
2024/01/27 02:18:57;;;;;;;;;;;;;;;-0.73;100.00;97375.64;110419;1241;71289;-61
2024/01/27 02:21:29;;;;;;;;;;;;;;;-0.72;100.00;97370.64;110474;1241;69284;-61
2024/01/27 02:24:01;;;;;;;;;;;;;;;-0.72;100.00;97373.23;110411;1241;69129;-60
2024/01/27 02:26:36;;;;;;;;;;;;;;;-0.74;100.00;97372.06;110348;1244;59680;-61
2024/01/27 02:29:09;;;;;;;;;;;;;;;-0.74;100.00;97374.30;110390;1241;59688;-61
2024/01/27 02:31:42;;;;;;;;;;;;;;;-0.74;100.00;97383.36;110389;1241;71382;-59
2024/01/27 02:34:13;;;;;;;;;;;;;;;-0.74;100.00;97388.14;110377;1238;69334;-60
2024/01/27 02:36:49;;;;;;;;;;;;;;;-0.74;100.00;97385.23;110444;1241;69413;-61
2024/01/27 02:39:22;;;;;;;;;;;;;;;-0.78;100.00;97383.83;110433;1244;59751;-60
2024/01/27 02:41:54;;;;;;;;;;;;;;;-0.81;100.00;97385.27;110470;1241;59614;-60
2024/01/27 02:44:25;;;;;;;;;;;;;;;-0.88;100.00;97383.57;110454;1241;70825;-60
2024/01/27 02:46:55;;;;;;;;;;;;;;;-0.91;100.00;97384.36;110499;1239;68659;-60
2024/01/27 02:49:28;;;;;;;;;;;;;;;-0.95;100.00;97387.70;110442;1238;69303;-61
2024/01/27 02:52:05;;;;;;;;;;;;;;;-0.97;100.00;97389.31;110500;1242;59779;-60
2024/01/27 02:54:40;;;;;;;;;;;;;;;-1.00;100.00;97388.17;110323;1241;59712;-60
2024/01/27 02:57:09;;;;;;;;;;;;;;;-1.04;100.00;97387.25;110312;1240;71941;-61
2024/01/27 02:59:44;;;;;;;;;;;;;;;-1.04;100.00;97385.03;110387;1242;69780;-60
2024/01/27 03:02:14;;;;;;;;;;;;;;;-1.07;100.00;97382.04;110449;1241;68901;-60
2024/01/27 03:04:43;;;;;;;;;;;;;;;-1.11;100.00;97375.65;110388;1238;59737;-60
2024/01/27 03:07:14;;;;;;;;;;;;;;;-1.12;100.00;97367.64;110595;1238;59634;-61
2024/01/27 03:09:44;;;;;;;;;;;;;;;-1.10;100.00;97364.85;110490;1241;70934;-60
2024/01/27 03:12:15;;;;;;;;;;;;;;;-1.07;100.00;97363.39;110345;1242;69822;-60
2024/01/27 03:14:48;;;;;;;;;;;;;;;-1.06;100.00;97364.23;110364;1241;68612;-60
2024/01/27 03:17:19;;;;;;;;;;;;;;;-1.06;100.00;97365.59;110475;1238;59750;-60
2024/01/27 03:19:51;;;;;;;;;;;;;;;-1.07;100.00;97366.80;110516;1239;59745;-60
2024/01/27 03:22:21;;;;;;;;;;;;;;;-1.09;100.00;97363.80;110445;1240;71398;-61
2024/01/27 03:24:53;;;;;;;;;;;;;;;-1.12;100.00;97362.69;110473;1238;69281;-61
2024/01/27 03:27:25;;;;;;;;;;;;;;;-1.17;100.00;97360.76;110450;1239;69353;-60
2024/01/27 03:30:01;;;;;;;;;;;;;;;-1.20;100.00;97360.50;110398;1242;59739;-61
2024/01/27 03:32:34;;;;;;;;;;;;;;;-1.23;100.00;97362.98;110360;1241;59718;-61
2024/01/27 03:35:08;;;;;;;;;;;;;;;-1.24;100.00;97357.53;110413;1241;71469;-61
2024/01/27 03:37:39;;;;;;;;;;;;;;;-1.23;100.00;97365.04;110401;1241;69231;-58
2024/01/27 03:40:11;;;;;;;;;;;;;;;-1.22;100.00;97363.98;110335;1241;68642;-61
2024/01/27 03:42:43;;;;;;;;;;;;;;;-1.22;100.00;97363.64;110405;1238;59713;-60
2024/01/27 03:45:14;;;;;;;;;;;;;;;-1.22;100.00;97364.66;110390;1239;59618;-60
2024/01/27 03:47:44;;;;;;;;;;;;;;;-1.20;100.00;97365.98;110438;1240;71258;-58
2024/01/27 03:50:18;;;;;;;;;;;;;;;-1.19;100.00;97365.77;110413;1240;69243;-59
2024/01/27 03:52:50;;;;;;;;;;;;;;;-1.18;100.00;97366.95;110328;1241;68593;-61
2024/01/27 03:55:20;;;;;;;;;;;;;;;-1.17;100.00;97365.90;110385;1242;59815;-58
2024/01/27 03:57:50;;;;;;;;;;;;;;;-1.17;100.00;97362.82;110480;1240;59744;-60
2024/01/27 04:00:21;;;;;;;;;;;;;;;-1.17;100.00;97366.41;110528;1240;70889;-59
2024/01/27 04:02:53;;;;;;;;;;;;;;;-1.17;100.00;97364.88;110440;1238;68577;-59
2024/01/27 04:05:25;;;;;;;;;;;;;;;-1.17;100.00;97365.54;110438;1240;69759;-60
2024/01/27 04:07:56;;;;;;;;;;;;;;;-1.17;100.00;97367.95;110419;1241;59671;-59
2024/01/27 04:10:27;;;;;;;;;;;;;;;-1.16;100.00;97367.23;110351;1248;59686;-59
2024/01/27 04:12:59;;;;;;;;;;;;;;;-1.14;100.00;97368.73;110447;1238;70876;-60
2024/01/27 04:15:38;;;;;;;;;;;;;;;-1.13;100.00;97369.89;110513;1241;69091;-61
2024/01/27 04:18:09;;;;;;;;;;;;;;;-1.12;100.00;97369.35;110355;1241;69262;-61
2024/01/27 04:20:41;;;;;;;;;;;;;;;-1.10;100.00;97370.17;110346;1243;59661;-60
2024/01/27 04:23:13;;;;;;;;;;;;;;;-1.10;100.00;97372.20;110379;1241;59732;-60
2024/01/27 04:25:44;;;;;;;;;;;;;;;-1.09;100.00;97373.20;110481;1240;71279;-60
2024/01/27 04:28:15;;;;;;;;;;;;;;;-1.09;100.00;97377.30;110460;1241;69067;-61
2024/01/27 04:30:45;;;;;;;;;;;;;;;-1.08;100.00;97379.67;110364;1241;69179;-60
2024/01/27 04:33:16;;;;;;;;;;;;;;;-1.06;100.00;97382.88;110532;1238;59736;-61
2024/01/27 04:35:46;;;;;;;;;;;;;;;-1.05;100.00;97384.05;110554;1241;59592;-60
2024/01/27 04:38:16;;;;;;;;;;;;;;;-1.05;100.00;97383.02;110566;1240;70692;-60
2024/01/27 04:40:48;;;;;;;;;;;;;;;-1.08;100.00;97387.67;110472;1240;69130;-60
2024/01/27 04:43:20;;;;;;;;;;;;;;;-1.07;100.00;97394.17;110557;1241;69231;-60
2024/01/27 04:45:50;;;;;;;;;;;;;;;-1.06;100.00;97391.77;110483;1241;60087;-60
2024/01/27 04:48:22;;;;;;;;;;;;;;;-1.07;100.00;97393.68;110526;1238;59640;-60
2024/01/27 04:50:53;;;;;;;;;;;;;;;-1.28;100.00;97394.23;110456;1241;70638;-60
2024/01/27 04:53:25;;;;;;;;;;;;;;;-1.33;100.00;97396.92;110482;1241;68328;-60
2024/01/27 04:55:54;;;;;;;;;;;;;;;-1.22;100.00;97402.79;110477;1240;69939;-61
2024/01/27 04:58:24;;;;;;;;;;;;;;;-1.09;100.00;97402.79;110356;1244;59739;-60
2024/01/27 05:00:54;;;;;;;;;;;;;;;-1.07;100.00;97407.52;110542;1241;59683;-60
2024/01/27 05:03:24;;;;;;;;;;;;;;;-1.06;100.00;97416.58;110488;1242;70450;-60
2024/01/27 05:05:54;;;;;;;;;;;;;;;-1.03;100.00;97419.39;110425;1240;68153;-60
2024/01/27 05:08:23;;;;;;;;;;;;;;;-1.00;100.00;97420.38;110408;1242;69757;-60
2024/01/27 05:10:53;;;;;;;;;;;;;;;-1.01;100.00;97418.50;110436;1240;59655;-59
2024/01/27 05:13:26;;;;;;;;;;;;;;;-0.98;100.00;97423.71;110353;1241;59657;-60
2024/01/27 05:15:56;;;;;;;;;;;;;;;-0.97;100.00;97426.77;110455;1241;70527;-59
2024/01/27 05:18:26;;;;;;;;;;;;;;;-0.96;100.00;97426.77;110520;1238;69758;-60
2024/01/27 05:20:56;;;;;;;;;;;;;;;-0.97;100.00;97428.98;110397;1238;69864;-60
2024/01/27 05:23:25;;;;;;;;;;;;;;;-0.97;100.00;97426.42;110384;1243;59744;-60
2024/01/27 05:25:55;;;;;;;;;;;;;;;-0.95;100.00;97426.22;110446;1238;59634;-60
2024/01/27 05:28:25;;;;;;;;;;;;;;;-0.95;100.00;97422.13;110517;1241;71989;-61
2024/01/27 05:30:55;;;;;;;;;;;;;;;-0.96;100.00;97426.76;110458;1244;68398;-60
2024/01/27 05:33:24;;;;;;;;;;;;;;;-0.99;100.00;97426.50;110428;1242;69531;-60
2024/01/27 05:35:55;;;;;;;;;;;;;;;-0.99;100.00;97423.24;110423;1242;59732;-60
2024/01/27 05:38:26;;;;;;;;;;;;;;;-1.01;100.00;97422.79;110436;1239;59741;-60
2024/01/27 05:40:56;;;;;;;;;;;;;;;-1.07;100.00;97425.64;110421;1238;71569;-60
2024/01/27 05:43:25;;;;;;;;;;;;;;;-1.08;100.00;97426.88;110427;1241;69928;-60
2024/01/27 05:45:55;;;;;;;;;;;;;;;-1.09;100.00;97430.50;110489;1238;68500;-58
2024/01/27 05:48:24;;;;;;;;;;;;;;;-1.10;100.00;97428.48;110409;1238;59683;-60
2024/01/27 05:50:58;;;;;;;;;;;;;;;-1.11;100.00;97425.27;110373;1241;59677;-60
2024/01/27 05:53:27;;;;;;;;;;;;;;;-1.11;100.00;97428.85;110556;1241;70821;-60
2024/01/27 05:55:57;;;;;;;;;;;;;;;-1.12;100.00;97428.70;110509;1246;68598;-60
2024/01/27 05:58:27;;;;;;;;;;;;;;;-1.14;100.00;97427.72;110426;1241;69138;-60
2024/01/27 06:00:56;;;;;;;;;;;;;;;-1.15;100.00;97431.19;110373;1240;60049;-59
2024/01/27 06:03:26;;;;;;;;;;;;;;;-1.16;100.00;97432.56;110465;1239;59686;-60
2024/01/27 06:05:55;;;;;;;;;;;;;;;-1.20;100.00;97431.98;110427;1241;71342;-59
2024/01/27 06:08:25;;;;;;;;;;;;;;;-1.26;100.00;97436.41;110431;1241;70219;-60
2024/01/27 06:10:54;;;;;;;;;;;;;;;-1.28;100.00;97435.10;110508;1241;69337;-59
2024/01/27 06:13:24;;;;;;;;;;;;;;;-1.27;100.00;97437.47;110404;1241;60088;-60
2024/01/27 06:15:53;;;;;;;;;;;;;;;-1.30;100.00;97443.36;110387;1238;59764;-60
2024/01/27 06:18:24;;;;;;;;;;;;;;;-1.27;100.00;97449.63;110360;1241;71999;-60
2024/01/27 06:20:53;;;;;;;;;;;;;;;-1.25;100.00;97454.00;110335;1239;69191;-60
2024/01/27 06:23:22;;;;;;;;;;;;;;;-1.23;100.00;97456.70;110378;1239;69852;-60
2024/01/27 06:25:51;;;;;;;;;;;;;;;-1.22;100.00;97461.78;110383;1238;59720;-60
2024/01/27 06:28:20;;;;;;;;;;;;;;;-1.20;100.00;97461.58;110372;1238;59696;-60
2024/01/27 06:30:50;;;;;;;;;;;;;;;-1.19;100.00;97461.21;110314;1238;71848;-60
2024/01/27 06:33:20;;;;;;;;;;;;;;;-1.19;100.00;97467.88;110341;1248;69210;-61
2024/01/27 06:35:50;;;;;;;;;;;;;;;-1.18;100.00;97469.04;110360;1244;68427;-61
2024/01/27 06:38:19;;;;;;;;;;;;;;;-1.14;100.00;97475.80;110347;1238;59734;-61
2024/01/27 06:40:49;;;;;;;;;;;;;;;-1.11;100.00;97479.30;110494;1239;59723;-59
2024/01/27 06:43:19;;;;;;;;;;;;;;;-1.09;100.00;97481.99;110352;1240;71505;-60
2024/01/27 06:45:49;;;;;;;;;;;;;;;-1.08;100.00;97486.73;110372;1242;69514;-60
2024/01/27 06:48:18;;;;;;;;;;;;;;;-1.06;100.00;97492.36;110464;1238;69276;-60
2024/01/27 06:50:48;;;;;;;;;;;;;;;-1.04;100.00;97496.90;110452;1242;59672;-59
2024/01/27 06:53:18;;;;;;;;;;;;;;;-1.00;100.00;97497.35;110476;1240;59704;-60
2024/01/27 06:55:47;;;;;;;;;;;;;;;-0.96;100.00;97497.24;110531;1241;71981;-60
2024/01/27 06:58:16;;;;;;;;;;;;;;;-0.91;100.00;97498.30;110457;1241;69195;-61
2024/01/27 07:00:45;;;;;;;;;;;;;;;-0.91;100.00;97496.77;110323;1240;69885;-60
2024/01/27 07:03:15;;;;;;;;;;;;;;;-0.88;100.00;97505.09;110430;1240;59682;-60
2024/01/27 07:05:45;;;;;;;;;;;;;;;-0.84;100.00;97504.77;110501;1241;59654;-60
2024/01/27 07:08:14;;;;;;;;;;;;;;;-0.80;100.00;97502.29;110469;1241;70651;-60
2024/01/27 07:10:44;;;;;;;;;;;;;;;-0.77;100.00;97509.73;110371;1241;69209;-60
2024/01/27 07:13:13;;;;;;;;;;;;;;;-0.74;100.00;97518.06;110403;1241;68864;-61
2024/01/27 07:15:42;;;;;;;;;;;;;;;-0.71;100.00;97517.64;110437;1240;59741;-61
2024/01/27 07:18:11;;;;;;;;;;;;;;;-0.66;100.00;97521.42;110411;1240;59727;-59
2024/01/27 07:20:41;;;;;;;;;;;;;;;-0.61;100.00;97526.95;110356;1238;71351;-59
2024/01/27 07:23:10;;;;;;;;;;;;;;;-0.57;100.00;97533.36;110489;1241;69851;-59
2024/01/27 07:25:39;;;;;;;;;;;;;;;-0.53;100.00;97535.80;110540;1241;69866;-60
2024/01/27 07:28:08;;;;;;;;;;;;;;;-0.48;100.00;97537.57;110492;1238;59734;-60
2024/01/27 07:30:38;;;;;;;;;;;;;;;-0.45;100.00;97541.78;110383;1241;59625;-60
2024/01/27 07:33:08;;;;;;;;;;;;;;;-0.38;100.00;97544.67;110381;1240;71427;-61
2024/01/27 07:35:37;;;;;;;;;;;;;;;-0.33;100.00;97547.44;110367;1241;69289;-61
2024/01/27 07:38:08;;;;;;;;;;;;;;;-0.28;100.00;97553.14;110340;1242;69272;-61
2024/01/27 07:40:37;;;;;;;;;;;;;;;-0.25;100.00;97555.10;110340;1240;60127;-61
2024/01/27 07:43:06;;;;;;;;;;;;;;;-0.23;100.00;97557.10;110347;1240;59740;-61
2024/01/27 07:45:36;;;;;;;;;;;;;;;-0.18;100.00;97553.54;110355;1238;70395;-61
2024/01/27 07:48:06;;;;;;;;;;;;;;;-0.13;100.00;97553.04;110405;1241;69818;-61
2024/01/27 07:50:34;;;;;;;;;;;;;;;-0.09;100.00;97555.32;110422;1241;69894;-61
2024/01/27 07:53:05;;;;;;;;;;;;;;;-0.06;100.00;97556.61;110446;1241;59735;-61
2024/01/27 07:55:34;;;;;;;;;;;;;;;0.02;100.00;97559.84;110444;1241;59753;-61
2024/01/27 07:58:03;;;;;;;;;;;;;;;0.02;100.00;97564.96;110460;1238;71957;-61
2024/01/27 08:00:33;;;;;;;;;;;;;;;-0.02;100.00;97567.46;110389;1238;69297;-61
2024/01/27 08:03:05;;;;;;;;;;;;;;;0.04;100.00;97567.31;110362;1238;69936;-61
2024/01/27 08:05:34;;;;;;;;;;;;;;;0.06;100.00;97570.69;110380;1240;59738;-61
2024/01/27 08:08:03;;;;;;;;;;;;;;;0.04;100.00;97571.45;110392;1241;59671;-61
2024/01/27 08:10:32;;;;;;;;;;;;;;;-0.06;100.00;97571.69;110371;1239;70610;-61
2024/01/27 08:13:02;;;;;;;;;;;;;;;-0.13;100.00;97571.05;110387;1240;69556;-60
2024/01/27 08:15:30;;;;;;;;;;;;;;;-0.23;100.00;97576.46;110412;1240;69266;-61
2024/01/27 08:17:59;;;;;;;;;;;;;;;-0.27;100.00;97578.12;110378;1240;59679;-61
2024/01/27 08:20:30;;;;;;;;;;;;;;;-0.36;100.00;97582.64;110341;1240;59721;-61
2024/01/27 08:22:59;;;;;;;;;;;;;;;-0.41;100.00;97586.70;110408;1240;70964;-61
2024/01/27 08:25:30;;;;;;;;;;;;;;;-0.43;100.00;97590.84;110373;1241;69175;-62
2024/01/27 08:28:00;;;;;;;;;;;;;;;-0.46;100.00;97592.98;110418;1241;69260;-61
2024/01/27 08:30:30;;;;;;;;;;;;;;;-0.48;100.00;97599.55;110505;1240;59744;-61
2024/01/27 08:32:59;;;;;;;;;;;;;;;-0.53;100.00;97603.62;110433;1242;59722;-61
2024/01/27 08:35:29;;;;;;;;;;;;;;;-0.47;100.00;97602.42;110412;1240;71825;-61
2024/01/27 08:37:58;;;;;;;;;;;;;;;-0.51;100.00;97608.52;110416;1241;68490;-61
2024/01/27 08:40:27;;;;;;;;;;;;;;;-0.47;100.00;97608.93;110381;1240;69834;-61
2024/01/27 08:42:56;;;;;;;;;;;;;;;-0.44;100.00;97609.55;110395;1238;59721;-61
2024/01/27 08:45:26;;;;;;;;;;;;;;;-0.42;100.00;97613.95;110392;1239;59982;-62
2024/01/27 08:47:55;;;;;;;;;;;;;;;-0.38;100.00;97614.88;110394;1239;71930;-61
2024/01/27 08:50:24;;;;;;;;;;;;;;;-0.39;100.00;97619.86;110382;1239;69014;-62
2024/01/27 08:52:53;;;;;;;;;;;;;;;-0.35;100.00;97624.91;110351;1240;69760;-62
2024/01/27 08:55:23;;;;;;;;;;;;;;;-0.33;100.00;97625.01;110422;1240;59749;-62
2024/01/27 08:57:52;;;;;;;;;;;;;;;-0.43;100.00;97622.20;110389;1240;59685;-62
2024/01/27 09:00:21;;;;;;;;;;;;;;;-0.34;100.00;97626.42;110399;1241;71669;-59
2024/01/27 09:02:52;;;;;;;;;;;;;;;-0.27;100.00;97635.83;110449;1241;69380;-61
2024/01/27 09:05:21;;;;;;;;;;;;;;;-0.29;100.00;97638.62;110362;1238;69178;-61
2024/01/27 09:07:50;;;;;;;;;;;;;;;-0.33;100.00;97639.08;110371;1240;59730;-62
2024/01/27 09:10:20;;;;;;;;;;;;;;;-0.31;100.00;97639.86;110478;1241;59695;-62
2024/01/27 09:12:49;;;;;;;;;;;;;;;-0.27;100.00;97638.90;110459;1238;71325;-63
2024/01/27 09:15:18;;;;;;;;;;;;;;;-0.17;100.00;97637.45;110352;1241;69046;-62
2024/01/27 09:17:48;;;;;;;;;;;;;;;-0.01;100.00;97638.39;110430;1238;68783;-62
2024/01/27 09:20:17;;;;;;;;;;;;;;;0.04;100.00;97645.11;110387;1241;60104;-61
2024/01/27 09:22:47;;;;;;;;;;;;;;;0.12;100.00;97645.58;110393;1238;59744;-61
2024/01/27 09:25:16;;;;;;;;;;;;;;;0.21;100.00;97648.60;110528;1240;71426;-61
2024/01/27 09:27:45;;;;;;;;;;;;;;;0.34;100.00;97648.23;110531;1238;69429;-62
2024/01/27 09:30:14;;;;;;;;;;;;;;;0.43;100.00;97655.69;110495;1240;69283;-62
2024/01/27 09:32:43;;;;;;;;;;;;;;;0.53;100.00;97660.21;110476;1241;59689;-63
2024/01/27 09:35:13;;;;;;;;;;;;;;;0.59;100.00;97664.15;110446;1241;59666;-63
2024/01/27 09:37:44;;;;;;;;;;;;;;;0.63;100.00;97663.86;110470;1240;71973;-63
2024/01/27 09:40:13;;;;;;;;;;;;;;;0.76;100.00;97666.39;110486;1244;69806;-61
2024/01/27 09:42:47;;;;;;;;;;;;;;;0.77;100.00;97662.39;110386;1240;69311;-61
2024/01/27 09:45:16;;;;;;;;;;;;;;;0.88;100.00;97662.92;110493;1238;59740;-61
2024/01/27 09:47:46;;;;;;;;;;;;;;;0.93;100.00;97666.40;110501;1238;60051;-61
2024/01/27 09:50:17;;;;;;;;;;;;;;;0.99;100.00;97669.64;110331;1241;70717;-61
2024/01/27 09:52:46;;;;;;;;;;;;;;;1.05;100.00;97676.15;110412;1240;69879;-61
2024/01/27 09:55:16;;;;;;;;;;;;;;;1.12;100.00;97674.23;110492;1240;68571;-59
2024/01/27 09:57:46;;;;;;;;;;;;;;;1.18;100.00;97673.35;110374;1240;59736;-62
2024/01/27 10:00:16;;;;;;;;;;;;;;;1.28;100.00;97675.27;110352;1240;59686;-61
2024/01/27 10:02:46;;;;;;;;;;;;;;;1.41;100.00;97677.95;110376;1241;71467;-61
2024/01/27 10:05:16;;;;;;;;;;;;;;;1.53;100.00;97677.23;110383;1238;69783;-62
2024/01/27 10:07:45;;;;;;;;;;;;;;;1.64;100.00;97677.90;110376;1240;69389;-62
2024/01/27 10:10:14;;;;;;;;;;;;;;;1.72;100.00;97682.98;110277;1240;59703;-60
2024/01/27 10:12:44;;;;;;;;;;;;;;;1.82;100.00;97682.27;110230;1241;59691;-61
2024/01/27 10:15:20;;;;;;;;;;;;;;;1.87;100.00;97679.19;110261;1241;71983;-62
2024/01/27 10:17:49;;;;;;;;;;;;;;;1.99;100.00;97676.04;110273;1241;68862;-62
2024/01/27 10:20:19;;;;;;;;;;;;;;;2.00;100.00;97679.45;110261;1239;69148;-62
2024/01/27 10:22:48;;;;;;;;;;;;;;;2.06;100.00;97682.49;110285;1241;59748;-62
2024/01/27 10:25:17;;;;;;;;;;;;;;;2.24;100.00;97681.52;110274;1239;59685;-62
2024/01/27 10:27:47;;;;;;;;;;;;;;;2.45;100.00;97678.02;110246;1241;71405;-61
2024/01/27 10:30:17;;;;;;;;;;;;;;;2.67;100.00;97678.11;110239;1241;68465;-61
2024/01/27 10:32:56;;;;;;;;;;;;;;;2.74;100.00;97677.31;110228;1241;70066;-61
2024/01/27 10:35:27;;;;;;;;;;;;;;;2.84;100.00;97682.45;110227;1241;60079;-61
2024/01/27 10:37:56;;;;;;;;;;;;;;;2.92;100.00;97685.42;110226;1239;59731;-61
2024/01/27 10:40:27;;;;;;;;;;;;;;;2.98;100.00;97684.64;110298;1241;71290;-61
2024/01/27 10:43:02;;;;;;;;;;;;;;;3.06;100.00;97681.98;110279;1241;67534;-61
2024/01/27 10:45:35;;;;;;;;;;;;;;;3.04;100.00;97687.19;110258;1241;69210;-62
2024/01/27 10:48:05;;;;;;;;;;;;;;;3.04;100.00;97684.09;110277;1241;60164;-61
2024/01/27 10:50:36;;;;;;;;;;;;;;;2.96;100.00;97689.73;110247;1241;59694;-61
2024/01/27 10:53:12;;;;;;;;;;;;;;;2.86;100.00;97689.95;110249;1240;71331;-61
2024/01/27 10:55:42;;;;;;;;;;;;;;;2.86;100.00;97686.52;110230;1241;68331;-61
2024/01/27 10:58:12;;;;;;;;;;;;;;;2.89;100.00;97687.77;110197;1241;69753;-61
2024/01/27 11:00:41;;;;;;;;;;;;;;;2.91;100.00;97689.40;110288;1239;59700;-61
2024/01/27 11:03:11;;;;;;;;;;;;;;;2.94;100.00;97692.23;110180;1242;59657;-61
2024/01/27 11:05:41;;;;;;;;;;;;;;;2.87;100.00;97691.99;110337;1240;71367;-61
2024/01/27 11:08:12;;;;;;;;;;;;;;;2.89;100.00;97691.72;110250;1241;69439;-61
2024/01/27 11:10:41;;;;;;;;;;;;;;;2.93;100.00;97691.77;110280;1241;69290;-61
2024/01/27 11:13:11;;;;;;;;;;;;;;;3.04;100.00;97687.52;110254;1239;59725;-61
2024/01/27 11:15:50;;;;;;;;;;;;;;;3.14;100.00;97685.46;109802;1241;605791;-61
2024/01/27 11:18:19;;;;;;;;;;;;;;;3.26;100.00;97684.98;110235;1241;71360;-62
2024/01/27 11:20:48;;;;;;;;;;;;;;;3.37;100.00;97683.50;110234;1241;69677;-61
2024/01/27 11:23:17;;;;;;;;;;;;;;;3.51;100.00;97689.30;110226;1241;69319;-61
2024/01/27 11:25:47;;;;;;;;;;;;;;;3.66;100.00;97687.15;110276;1241;59757;-61
2024/01/27 11:28:16;;;;;;;;;;;;;;;3.82;100.00;97687.21;110330;1241;59711;-61
2024/01/27 11:30:49;;;;;;;;;;;;;;;3.85;100.00;97686.52;110333;1240;71370;-61
2024/01/27 11:33:18;;;;;;;;;;;;;;;3.92;100.00;97686.79;110250;1240;69821;-61
2024/01/27 11:35:48;;;;;;;;;;;;;;;4.09;100.00;97686.23;110264;1241;70248;-61
2024/01/27 11:38:17;;;;;;;;;;;;;;;4.31;100.00;97685.63;110261;1241;59706;-61
2024/01/27 11:40:46;;;;;;;;;;;;;;;4.41;99.52;97686.42;110278;1240;59675;-62
2024/01/27 11:43:15;;;;;;;;;;;;;;;4.52;99.51;97687.98;110280;1241;72567;-62
2024/01/27 11:45:54;;;;;;;;;;;;;;;4.65;99.26;97685.53;110235;1241;69794;-62
2024/01/27 11:48:23;;;;;;;;;;;;;;;4.72;98.38;97684.38;110297;1241;69246;-62
2024/01/27 11:51:03;;;;;;;;;;;;;;;4.71;96.78;97684.23;110249;1241;59748;-62
2024/01/27 11:53:31;;;;;;;;;;;;;;;4.79;97.65;97686.11;110267;1241;59721;-61
2024/01/27 11:56:01;;;;;;;;;;;;;;;4.71;92.88;97684.40;110283;1241;71912;-61
2024/01/27 11:58:34;;;;;;;;;;;;;;;4.73;94.98;97686.72;110317;1240;68783;-63
2024/01/27 12:01:03;;;;;;;;;;;;;;;4.80;94.33;97686.91;110301;1241;69698;-62
2024/01/27 12:03:32;;;;;;;;;;;;;;;4.75;93.60;97691.33;110287;1241;59693;-62
2024/01/27 12:06:02;;;;;;;;;;;;;;;4.79;92.19;97692.33;110267;1240;59722;-62
2024/01/27 12:08:31;;;;;;;;;;;;;;;4.84;92.58;97690.73;110340;1240;72027;-61
2024/01/27 12:11:00;;;;;;;;;;;;;;;4.92;91.24;97690.70;110241;1241;69674;-62
2024/01/27 12:13:29;;;;;;;;;;;;;;;5.11;91.40;97692.59;110298;1241;69173;-62
2024/01/27 12:15:58;;;;;;;;;;;;;;;5.22;90.99;97695.34;110304;1241;59670;-63
2024/01/27 12:18:30;;;;;;;;;;;;;;;5.16;89.99;97695.83;110287;1241;59679;-62
2024/01/27 12:20:59;;;;;;;;;;;;;;;5.16;90.38;97700.83;110300;1241;70524;-62
2024/01/27 12:23:28;;;;;;;;;;;;;;;4.97;87.68;97698.59;110329;1241;69828;-62
2024/01/27 12:25:58;;;;;;;;;;;;;;;5.01;89.42;97697.73;110259;1240;69644;-62
2024/01/27 12:28:27;;;;;;;;;;;;;;;5.06;88.84;97697.11;110269;1241;59729;-62
2024/01/27 12:30:56;;;;;;;;;;;;;;;5.14;88.89;97700.78;110264;1241;59679;-62
2024/01/27 12:33:25;;;;;;;;;;;;;;;5.01;85.74;97700.14;110259;1240;70905;-62
2024/01/27 12:35:55;;;;;;;;;;;;;;;5.25;84.48;97696.08;110246;1241;69636;-62
2024/01/27 12:38:24;;;;;;;;;;;;;;;6.38;81.32;97690.58;110259;1239;68155;-62
2024/01/27 12:40:53;;;;;;;;;;;;;;;6.91;75.33;97699.21;110284;1240;60057;-62
2024/01/27 12:43:22;;;;;;;;;;;;;;;7.54;71.57;97696.81;110329;1240;59738;-62
2024/01/27 12:45:51;;;;;;;;;;;;;;;8.23;68.95;97699.64;110329;1241;71349;-62
2024/01/27 12:48:20;;;;;;;;;;;;;;;9.24;67.07;97697.84;110280;1241;68824;-61